Time,TemperatureF,DewpointF,PressureIn,WindDirection,WindDirectionDegrees,WindSpeedMPH,WindSpeedGustMPH,Humidity,HourlyPrecipIn,Conditions,Clouds,dailyrainin,SoftwareType,DateUTC
2013-03-24 00:00:00,47.9,47.1,29.49,SSE,157,4.0,8.0,97,0.00,,,0.00,Weather View 32 v70,2013-03-24 04:00:00,
2013-03-24 00:05:00,48.2,47.4,29.49,SSE,157,4.0,8.0,97,0.00,,,0.00,Weather View 32 v70,2013-03-24 04:05:00,
2013-03-24 00:10:00,48.3,47.5,29.49,SSE,157,2.0,8.0,97,0.00,,,0.00,Weather View 32 v70,2013-03-24 04:10:00,
2013-03-24 00:15:00,48.3,47.5,29.49,SSE,157,2.0,8.0,97,0.00,,,0.00,Weather View 32 v70,2013-03-24 04:15:00,
2013-03-24 00:21:00,48.4,47.6,29.49,SE,135,2.0,8.0,97,0.00,,,0.00,Weather View 32 v70,2013-03-24 04:21:00,
2013-03-24 00:26:00,48.4,47.6,29.48,ESE,112,3.0,8.0,97,0.00,,,0.00,Weather View 32 v70,2013-03-24 04:26:00,
2013-03-24 00:31:00,48.4,47.6,29.48,East,90,3.0,7.0,97,0.00,,,0.00,Weather View 32 v70,2013-03-24 04:31:00,
2013-03-24 00:36:00,48.3,47.5,29.47,East,90,6.0,6.0,97,0.00,,,0.00,Weather View 32 v70,2013-03-24 04:36:00,
2013-03-24 00:41:00,48.3,47.5,29.46,East,90,3.0,7.0,97,0.00,,,0.00,Weather View 32 v70,2013-03-24 04:41:00,
2013-03-24 00:46:00,48.3,47.5,29.45,East,90,4.0,8.0,97,0.00,,,0.00,Weather View 32 v70,2013-03-24 04:46:00,
2013-03-24 00:51:00,48.3,47.5,29.45,East,90,5.0,8.0,97,0.00,,,0.00,Weather View 32 v70,2013-03-24 04:51:00,
2013-03-24 00:56:00,48.2,47.4,29.45,ENE,67,6.0,8.0,97,0.00,,,0.00,Weather View 32 v70,2013-03-24 04:56:00,
2013-03-24 01:01:00,48.2,47.4,29.45,East,90,6.0,8.0,97,0.00,,,0.00,Weather View 32 v70,2013-03-24 05:01:00,
2013-03-24 01:06:00,48.3,47.5,29.45,East,90,6.0,8.0,97,0.00,,,0.00,Weather View 32 v70,2013-03-24 05:06:00,
2013-03-24 01:11:00,48.3,47.5,29.46,East,90,2.0,10.0,97,0.00,,,0.00,Weather View 32 v70,2013-03-24 05:11:00,
2013-03-24 01:16:00,48.3,47.5,29.46,East,90,2.0,10.0,97,0.00,,,0.00,Weather View 32 v70,2013-03-24 05:16:00,
2013-03-24 01:21:00,48.3,47.5,29.46,ENE,67,4.0,10.0,97,0.00,,,0.00,Weather View 32 v70,2013-03-24 05:21:00,
2013-03-24 01:26:00,48.3,47.5,29.46,NE,45,5.0,10.0,97,0.00,,,0.00,Weather View 32 v70,2013-03-24 05:26:00,
2013-03-24 01:32:00,48.3,47.5,29.47,ENE,67,2.0,10.0,97,0.00,,,0.00,Weather View 32 v70,2013-03-24 05:32:00,
2013-03-24 01:37:00,48.4,47.6,29.47,NE,45,4.0,10.0,97,0.00,,,0.00,Weather View 32 v70,2013-03-24 05:37:00,
2013-03-24 01:42:00,48.3,47.5,29.46,NE,45,5.0,10.0,97,0.00,,,0.00,Weather View 32 v70,2013-03-24 05:42:00,
2013-03-24 01:47:00,48.3,47.5,29.46,NE,45,4.0,10.0,97,0.00,,,0.00,Weather View 32 v70,2013-03-24 05:47:00,
2013-03-24 01:52:00,48.3,47.5,29.45,NE,45,4.0,10.0,97,0.00,,,0.00,Weather View 32 v70,2013-03-24 05:52:00,
2013-03-24 01:57:00,48.2,47.4,29.44,ENE,67,6.0,10.0,97,0.00,,,0.00,Weather View 32 v70,2013-03-24 05:57:00,
2013-03-24 02:02:00,48.0,47.2,29.44,NE,45,6.0,10.0,97,0.00,,,0.00,Weather View 32 v70,2013-03-24 06:02:00,
2013-03-24 02:07:00,47.8,47.0,29.43,NE,45,4.0,10.0,97,0.00,,,0.00,Weather View 32 v70,2013-03-24 06:07:00,
2013-03-24 02:12:00,47.8,47.0,29.42,NE,45,5.0,10.0,97,0.01,,,0.01,Weather View 32 v70,2013-03-24 06:12:00,
2013-03-24 02:17:00,47.6,46.8,29.42,NE,45,9.0,11.0,97,0.01,,,0.01,Weather View 32 v70,2013-03-24 06:17:00,
2013-03-24 02:22:00,47.5,46.7,29.40,ENE,67,7.0,11.0,97,0.01,,,0.01,Weather View 32 v70,2013-03-24 06:22:00,
2013-03-24 02:27:00,47.4,46.6,29.40,NE,45,8.0,11.0,97,0.01,,,0.01,Weather View 32 v70,2013-03-24 06:27:00,
2013-03-24 02:32:00,47.4,46.6,29.40,ENE,67,9.0,12.0,97,0.02,,,0.02,Weather View 32 v70,2013-03-24 06:32:00,
2013-03-24 02:37:00,47.4,46.6,29.39,East,90,8.0,12.0,97,0.02,,,0.02,Weather View 32 v70,2013-03-24 06:37:00,
2013-03-24 02:42:00,47.4,46.6,29.38,ESE,112,7.0,12.0,97,0.02,,,0.02,Weather View 32 v70,2013-03-24 06:42:00,
2013-03-24 02:47:00,47.5,46.7,29.38,East,90,9.0,12.0,97,0.03,,,0.03,Weather View 32 v70,2013-03-24 06:47:00,
2013-03-24 02:52:00,47.5,46.7,29.38,East,90,7.0,12.0,97,0.03,,,0.03,Weather View 32 v70,2013-03-24 06:52:00,
2013-03-24 02:57:00,47.4,46.6,29.36,East,90,7.0,12.0,97,0.03,,,0.03,Weather View 32 v70,2013-03-24 06:57:00,
2013-03-24 03:02:00,47.5,46.7,29.36,East,90,5.0,12.0,97,0.03,,,0.03,Weather View 32 v70,2013-03-24 07:02:00,
2013-03-24 03:07:00,47.4,46.6,29.36,East,90,7.0,13.0,97,0.04,,,0.04,Weather View 32 v70,2013-03-24 07:07:00,
2013-03-24 03:12:00,47.4,46.6,29.35,East,90,10.0,13.0,97,0.03,,,0.04,Weather View 32 v70,2013-03-24 07:12:00,
2013-03-24 03:18:00,47.5,46.7,29.36,ESE,112,8.0,13.0,97,0.04,,,0.05,Weather View 32 v70,2013-03-24 07:18:00,
2013-03-24 03:23:00,47.5,46.7,29.35,East,90,6.0,13.0,97,0.04,,,0.05,Weather View 32 v70,2013-03-24 07:23:00,
2013-03-24 03:28:00,47.5,46.7,29.35,East,90,9.0,13.0,97,0.04,,,0.05,Weather View 32 v70,2013-03-24 07:28:00,
2013-03-24 03:33:00,47.5,46.7,29.33,East,90,4.0,16.0,97,0.03,,,0.05,Weather View 32 v70,2013-03-24 07:33:00,
2013-03-24 03:38:00,47.5,46.7,29.33,East,90,3.0,16.0,97,0.04,,,0.06,Weather View 32 v70,2013-03-24 07:38:00,
2013-03-24 03:43:00,47.5,46.7,29.33,East,90,6.0,16.0,97,0.04,,,0.06,Weather View 32 v70,2013-03-24 07:43:00,
2013-03-24 03:48:00,47.5,46.7,29.34,ESE,112,5.0,16.0,97,0.04,,,0.07,Weather View 32 v70,2013-03-24 07:48:00,
2013-03-24 03:53:00,47.5,46.7,29.33,East,90,8.0,16.0,97,0.04,,,0.07,Weather View 32 v70,2013-03-24 07:53:00,
2013-03-24 03:58:00,47.5,46.7,29.32,East,90,6.0,16.0,97,0.04,,,0.07,Weather View 32 v70,2013-03-24 07:58:00,
2013-03-24 04:03:00,47.5,46.7,29.31,East,90,5.0,16.0,97,0.05,,,0.08,Weather View 32 v70,2013-03-24 08:03:00,
2013-03-24 04:08:00,47.5,46.7,29.30,East,90,7.0,16.0,97,0.04,,,0.08,Weather View 32 v70,2013-03-24 08:08:00,
2013-03-24 04:13:00,47.5,46.7,29.30,ENE,67,10.0,16.0,97,0.04,,,0.08,Weather View 32 v70,2013-03-24 08:13:00,
2013-03-24 04:18:00,47.5,46.7,29.30,East,90,8.0,16.0,97,0.04,,,0.09,Weather View 32 v70,2013-03-24 08:18:00,
2013-03-24 04:23:00,47.6,46.8,29.28,East,90,9.0,16.0,97,0.04,,,0.09,Weather View 32 v70,2013-03-24 08:23:00,
2013-03-24 04:28:00,47.7,46.9,29.30,ENE,67,4.0,16.0,97,0.04,,,0.09,Weather View 32 v70,2013-03-24 08:28:00,
2013-03-24 04:33:00,47.8,47.0,29.31,East,90,6.0,14.0,97,0.04,,,0.09,Weather View 32 v70,2013-03-24 08:33:00,
2013-03-24 04:38:00,47.8,47.0,29.29,ESE,112,7.0,14.0,97,0.04,,,0.10,Weather View 32 v70,2013-03-24 08:38:00,
2013-03-24 04:43:00,47.8,47.0,29.29,ENE,67,7.0,14.0,97,0.04,,,0.10,Weather View 32 v70,2013-03-24 08:43:00,
2013-03-24 04:48:00,47.8,47.0,29.30,East,90,4.0,14.0,97,0.04,,,0.11,Weather View 32 v70,2013-03-24 08:48:00,
2013-03-24 04:53:00,47.9,47.1,29.31,NE,45,4.0,14.0,97,0.04,,,0.11,Weather View 32 v70,2013-03-24 08:53:00,
2013-03-24 04:58:00,47.8,47.0,29.32,NNE,22,3.0,14.0,97,0.04,,,0.11,Weather View 32 v70,2013-03-24 08:58:00,
2013-03-24 05:03:00,47.8,47.0,29.32,NNE,22,6.0,14.0,97,0.04,,,0.12,Weather View 32 v70,2013-03-24 09:03:00,
2013-03-24 05:08:00,47.7,46.9,29.25,NE,45,11.0,17.0,97,0.04,,,0.12,Weather View 32 v70,2013-03-24 09:08:00,
2013-03-24 05:13:00,47.6,46.8,29.28,NE,45,8.0,17.0,97,0.05,,,0.13,Weather View 32 v70,2013-03-24 09:13:00,
2013-03-24 05:18:00,47.6,46.8,29.30,NE,45,1.0,17.0,97,0.04,,,0.13,Weather View 32 v70,2013-03-24 09:18:00,
2013-03-24 05:23:00,47.6,46.8,29.31,East,90,7.0,17.0,97,0.04,,,0.13,Weather View 32 v70,2013-03-24 09:23:00,
2013-03-24 05:28:00,47.5,46.7,29.30,ENE,67,4.0,17.0,97,0.05,,,0.14,Weather View 32 v70,2013-03-24 09:28:00,
2013-03-24 05:33:00,47.5,46.7,29.30,NE,45,8.0,17.0,97,0.05,,,0.14,Weather View 32 v70,2013-03-24 09:33:00,
2013-03-24 05:38:00,47.5,46.7,29.31,ENE,67,9.0,17.0,97,0.05,,,0.15,Weather View 32 v70,2013-03-24 09:38:00,
2013-03-24 05:43:00,47.4,46.6,29.28,NE,45,10.0,17.0,97,0.05,,,0.15,Weather View 32 v70,2013-03-24 09:43:00,
2013-03-24 05:48:00,47.2,46.4,29.24,East,90,11.0,24.0,97,0.05,,,0.16,Weather View 32 v70,2013-03-24 09:48:00,
2013-03-24 05:53:00,47.2,46.4,29.22,NE,45,9.0,24.0,97,0.05,,,0.16,Weather View 32 v70,2013-03-24 09:53:00,
2013-03-24 05:58:00,47.2,46.4,29.26,NE,45,3.0,24.0,97,0.06,,,0.17,Weather View 32 v70,2013-03-24 09:58:00,
2013-03-24 06:03:00,47.2,46.4,29.30,North,360,6.0,24.0,97,0.05,,,0.17,Weather View 32 v70,2013-03-24 10:03:00,
2013-03-24 06:08:00,47.2,46.4,29.30,NNE,22,3.0,24.0,97,0.05,,,0.17,Weather View 32 v70,2013-03-24 10:08:00,
2013-03-24 06:13:00,47.2,46.4,29.32,NNE,22,4.0,24.0,97,0.05,,,0.18,Weather View 32 v70,2013-03-24 10:13:00,
2013-03-24 06:18:00,47.1,46.3,29.32,NNE,22,8.0,24.0,97,0.05,,,0.19,Weather View 32 v70,2013-03-24 10:18:00,
2013-03-24 06:23:00,46.7,45.9,29.26,NE,45,14.0,24.0,97,0.06,,,0.19,Weather View 32 v70,2013-03-24 10:23:00,
2013-03-24 06:28:00,46.7,45.9,29.28,East,90,7.0,24.0,97,0.05,,,0.19,Weather View 32 v70,2013-03-24 10:28:00,
2013-03-24 06:33:00,46.6,45.8,29.27,NE,45,6.0,24.0,97,0.06,,,0.20,Weather View 32 v70,2013-03-24 10:33:00,
2013-03-24 06:38:00,46.6,45.8,29.30,NNE,22,7.0,24.0,97,0.05,,,0.20,Weather View 32 v70,2013-03-24 10:38:00,
2013-03-24 06:43:00,46.5,45.7,29.30,NE,45,12.0,24.0,97,0.06,,,0.21,Weather View 32 v70,2013-03-24 10:43:00,
2013-03-24 06:48:00,46.5,45.7,29.28,ENE,67,18.0,24.0,97,0.05,,,0.21,Weather View 32 v70,2013-03-24 10:48:00,
2013-03-24 06:53:00,46.4,45.6,29.30,NE,45,6.0,21.0,97,0.06,,,0.22,Weather View 32 v70,2013-03-24 10:53:00,
2013-03-24 06:59:00,46.4,45.6,29.30,ENE,67,9.0,21.0,97,0.05,,,0.22,Weather View 32 v70,2013-03-24 10:59:00,
2013-03-24 07:04:00,46.4,45.6,29.30,East,90,6.0,21.0,97,0.06,,,0.23,Weather View 32 v70,2013-03-24 11:04:00,
2013-03-24 07:09:00,46.4,45.6,29.30,NE,45,15.0,21.0,97,0.06,,,0.23,Weather View 32 v70,2013-03-24 11:09:00,
2013-03-24 07:14:00,46.5,45.7,29.30,ENE,67,11.0,21.0,97,0.06,,,0.24,Weather View 32 v70,2013-03-24 11:14:00,
2013-03-24 07:19:00,46.5,45.7,29.31,NE,45,6.0,21.0,97,0.05,,,0.24,Weather View 32 v70,2013-03-24 11:19:00,
2013-03-24 07:24:00,46.5,45.7,29.30,ENE,67,6.0,21.0,97,0.06,,,0.25,Weather View 32 v70,2013-03-24 11:24:00,
2013-03-24 07:29:00,46.5,45.7,29.29,East,90,16.0,21.0,97,0.06,,,0.25,Weather View 32 v70,2013-03-24 11:29:00,
2013-03-24 07:34:00,46.5,45.7,29.26,ENE,67,16.0,24.0,97,0.05,,,0.25,Weather View 32 v70,2013-03-24 11:34:00,
2013-03-24 07:39:00,46.5,45.7,29.26,East,90,17.0,24.0,97,0.06,,,0.26,Weather View 32 v70,2013-03-24 11:39:00,
2013-03-24 07:44:00,46.6,45.8,29.28,East,90,10.0,24.0,97,0.06,,,0.27,Weather View 32 v70,2013-03-24 11:44:00,
2013-03-24 07:49:00,46.5,45.7,29.25,ENE,67,22.0,24.0,97,0.06,,,0.27,Weather View 32 v70,2013-03-24 11:49:00,
2013-03-24 07:54:00,46.5,45.7,29.24,East,90,9.0,24.0,97,0.05,,,0.27,Weather View 32 v70,2013-03-24 11:54:00,
2013-03-24 07:59:00,46.5,45.7,29.22,East,90,7.0,26.0,97,0.06,,,0.28,Weather View 32 v70,2013-03-24 11:59:00,
2013-03-24 08:04:00,46.5,45.7,29.22,East,90,9.0,26.0,97,0.06,,,0.29,Weather View 32 v70,2013-03-24 12:04:00,
2013-03-24 08:09:00,46.7,45.9,29.22,East,90,11.0,26.0,97,0.06,,,0.29,Weather View 32 v70,2013-03-24 12:09:00,
2013-03-24 08:14:00,46.7,45.9,29.24,ESE,112,12.0,26.0,97,0.05,,,0.29,Weather View 32 v70,2013-03-24 12:14:00,
2013-03-24 08:19:00,46.8,46.0,29.18,ESE,112,8.0,26.0,97,0.06,,,0.30,Weather View 32 v70,2013-03-24 12:19:00,
2013-03-24 08:24:00,46.8,46.0,29.19,East,90,11.0,26.0,97,0.06,,,0.31,Weather View 32 v70,2013-03-24 12:24:00,
2013-03-24 08:29:00,46.9,46.1,29.20,East,90,10.0,26.0,97,0.06,,,0.31,Weather View 32 v70,2013-03-24 12:29:00,
2013-03-24 08:34:00,46.9,46.1,29.20,East,90,14.0,26.0,97,0.07,,,0.32,Weather View 32 v70,2013-03-24 12:34:00,
2013-03-24 08:39:00,47.1,46.3,29.20,East,90,12.0,26.0,97,0.06,,,0.32,Weather View 32 v70,2013-03-24 12:39:00,
2013-03-24 08:44:00,47.2,46.4,29.20,East,90,12.0,26.0,97,0.06,,,0.33,Weather View 32 v70,2013-03-24 12:44:00,
2013-03-24 08:49:00,47.2,46.4,29.19,East,90,13.0,26.0,97,0.06,,,0.33,Weather View 32 v70,2013-03-24 12:49:00,
2013-03-24 08:54:00,47.4,46.6,29.18,East,90,11.0,26.0,97,0.08,,,0.35,Weather View 32 v70,2013-03-24 12:54:00,
2013-03-24 08:59:00,47.6,46.8,29.19,East,90,11.0,25.0,97,0.07,,,0.35,Weather View 32 v70,2013-03-24 12:59:00,
2013-03-24 09:04:00,47.7,46.9,29.20,ESE,112,6.0,25.0,97,0.06,,,0.35,Weather View 32 v70,2013-03-24 13:04:00,
2013-03-24 09:09:00,47.7,46.9,29.20,ESE,112,7.0,24.0,97,0.09,,,0.38,Weather View 32 v70,2013-03-24 13:09:00,
2013-03-24 09:14:00,47.8,47.0,29.19,ESE,112,10.0,24.0,97,0.11,,,0.40,Weather View 32 v70,2013-03-24 13:14:00,
2013-03-24 09:19:00,47.8,47.0,29.20,ESE,112,7.0,21.0,97,0.12,,,0.42,Weather View 32 v70,2013-03-24 13:19:00,
2013-03-24 09:24:00,47.9,47.1,29.21,ESE,112,5.0,21.0,97,0.13,,,0.44,Weather View 32 v70,2013-03-24 13:24:00,
2013-03-24 09:29:00,47.9,47.1,29.20,East,90,7.0,21.0,97,0.14,,,0.46,Weather View 32 v70,2013-03-24 13:29:00,
2013-03-24 09:34:00,48.1,47.3,29.18,ESE,112,10.0,21.0,97,0.15,,,0.47,Weather View 32 v70,2013-03-24 13:34:00,
2013-03-24 09:39:00,48.1,47.3,29.18,ESE,112,7.0,21.0,97,0.17,,,0.49,Weather View 32 v70,2013-03-24 13:39:00,
2013-03-24 09:44:00,48.2,47.4,29.17,East,90,12.0,21.0,97,0.16,,,0.49,Weather View 32 v70,2013-03-24 13:44:00,
2013-03-24 09:49:00,48.2,47.4,29.17,ESE,112,9.0,21.0,97,0.16,,,0.49,Weather View 32 v70,2013-03-24 13:49:00,
2013-03-24 09:54:00,48.3,47.5,29.16,East,90,9.0,21.0,97,0.14,,,0.49,Weather View 32 v70,2013-03-24 13:54:00,
2013-03-24 09:59:00,48.5,47.7,29.15,ESE,112,11.0,17.0,97,0.14,,,0.49,Weather View 32 v70,2013-03-24 13:59:00,
2013-03-24 10:04:00,48.6,47.8,29.15,SE,135,9.0,16.0,97,0.14,,,0.49,Weather View 32 v70,2013-03-24 14:04:00,
2013-03-24 10:09:00,48.6,47.8,29.16,ESE,112,7.0,16.0,97,0.11,,,0.49,Weather View 32 v70,2013-03-24 14:09:00,
2013-03-24 10:14:00,48.8,48.0,29.16,ESE,112,10.0,16.0,97,0.09,,,0.49,Weather View 32 v70,2013-03-24 14:14:00,
2013-03-24 10:19:00,48.9,48.1,29.17,SE,135,7.0,16.0,97,0.07,,,0.49,Weather View 32 v70,2013-03-24 14:19:00,
2013-03-24 10:24:00,49.1,48.3,29.16,SE,135,7.0,16.0,97,0.05,,,0.49,Weather View 32 v70,2013-03-24 14:24:00,
2013-03-24 10:29:00,49.3,48.5,29.16,ESE,112,9.0,16.0,97,0.04,,,0.49,Weather View 32 v70,2013-03-24 14:29:00,
2013-03-24 10:35:00,49.7,48.9,29.15,ESE,112,10.0,16.0,97,0.02,,,0.49,Weather View 32 v70,2013-03-24 14:35:00,
2013-03-24 10:40:00,49.5,48.7,29.15,ESE,112,6.0,16.0,97,0.00,,,0.49,Weather View 32 v70,2013-03-24 14:40:00,
2013-03-24 10:45:00,49.8,49.0,29.14,ESE,112,4.0,16.0,97,0.00,,,0.49,Weather View 32 v70,2013-03-24 14:45:00,
2013-03-24 10:50:00,49.8,49.0,29.15,ESE,112,6.0,16.0,97,0.00,,,0.49,Weather View 32 v70,2013-03-24 14:50:00,
2013-03-24 10:55:00,49.9,49.1,29.15,North,360,4.0,16.0,97,0.00,,,0.49,Weather View 32 v70,2013-03-24 14:55:00,
2013-03-24 11:00:00,50.1,49.3,29.16,NNW,337,6.0,16.0,97,0.00,,,0.49,Weather View 32 v70,2013-03-24 15:00:00,
2013-03-24 11:05:00,50.0,49.2,29.17,NNE,22,5.0,14.0,97,0.00,,,0.49,Weather View 32 v70,2013-03-24 15:05:00,
2013-03-24 11:10:00,49.9,49.1,29.16,North,360,2.0,14.0,97,0.00,,,0.49,Weather View 32 v70,2013-03-24 15:10:00,
2013-03-24 11:15:00,49.9,49.1,29.16,NNE,22,2.0,14.0,97,0.00,,,0.49,Weather View 32 v70,2013-03-24 15:15:00,
2013-03-24 11:20:00,49.9,49.1,29.15,WNW,292,7.0,15.0,97,0.00,,,0.49,Weather View 32 v70,2013-03-24 15:20:00,
2013-03-24 11:25:00,49.9,49.1,29.15,NNE,22,3.0,15.0,97,0.00,,,0.49,Weather View 32 v70,2013-03-24 15:25:00,
2013-03-24 11:30:00,49.9,49.1,29.14,NNW,337,6.0,16.0,97,0.00,,,0.49,Weather View 32 v70,2013-03-24 15:30:00,
2013-03-24 11:35:00,49.8,49.0,29.14,WNW,292,6.0,16.0,97,0.00,,,0.49,Weather View 32 v70,2013-03-24 15:35:00,
2013-03-24 11:40:00,49.9,49.1,29.16,NE,45,7.0,16.0,97,0.00,,,0.49,Weather View 32 v70,2013-03-24 15:40:00,
2013-03-24 11:45:00,49.9,49.1,29.15,NW,315,1.0,16.0,97,0.00,,,0.49,Weather View 32 v70,2013-03-24 15:45:00,
2013-03-24 11:50:00,49.9,49.1,29.15,WNW,292,12.0,16.0,97,0.00,,,0.49,Weather View 32 v70,2013-03-24 15:50:00,
2013-03-24 11:55:00,49.8,49.0,29.16,ENE,67,10.0,16.0,97,0.00,,,0.49,Weather View 32 v70,2013-03-24 15:55:00,
2013-03-24 12:00:00,49.9,49.1,29.14,WNW,292,7.0,16.0,97,0.00,,,0.49,Weather View 32 v70,2013-03-24 16:00:00,
2013-03-24 12:05:00,49.9,49.1,29.15,East,90,6.0,16.0,97,0.00,,,0.49,Weather View 32 v70,2013-03-24 16:05:00,
2013-03-24 12:10:00,49.9,49.1,29.14,North,360,4.0,16.0,97,0.00,,,0.49,Weather View 32 v70,2013-03-24 16:10:00,
2013-03-24 12:15:00,49.9,49.1,29.14,NE,45,6.0,16.0,97,0.00,,,0.49,Weather View 32 v70,2013-03-24 16:15:00,
2013-03-24 12:20:00,49.9,49.1,29.15,NNE,22,4.0,16.0,97,0.00,,,0.49,Weather View 32 v70,2013-03-24 16:20:00,
2013-03-24 12:25:00,49.9,49.1,29.15,NNE,22,4.0,16.0,97,0.00,,,0.49,Weather View 32 v70,2013-03-24 16:25:00,
2013-03-24 12:30:00,49.9,49.1,29.15,NNE,22,6.0,16.0,97,0.00,,,0.49,Weather View 32 v70,2013-03-24 16:30:00,
2013-03-24 12:35:00,50.0,49.2,29.15,NNW,337,7.0,16.0,97,0.00,,,0.49,Weather View 32 v70,2013-03-24 16:35:00,
2013-03-24 12:40:00,49.8,49.0,29.16,North,360,7.0,16.0,97,0.00,,,0.49,Weather View 32 v70,2013-03-24 16:40:00,
2013-03-24 12:45:00,49.5,48.7,29.16,North,360,4.0,16.0,97,0.00,,,0.49,Weather View 32 v70,2013-03-24 16:45:00,
2013-03-24 12:50:00,49.3,48.5,29.16,North,360,6.0,16.0,97,0.00,,,0.49,Weather View 32 v70,2013-03-24 16:50:00,
2013-03-24 12:55:00,49.3,48.5,29.16,North,360,6.0,14.0,97,0.00,,,0.49,Weather View 32 v70,2013-03-24 16:55:00,
2013-03-24 13:00:00,49.2,48.4,29.16,NNW,337,6.0,12.0,97,0.00,,,0.49,Weather View 32 v70,2013-03-24 17:00:00,
2013-03-24 13:05:00,49.2,48.4,29.16,NNW,337,5.0,12.0,97,0.00,,,0.49,Weather View 32 v70,2013-03-24 17:05:00,
2013-03-24 13:10:00,49.1,48.3,29.16,NNW,337,6.0,12.0,97,0.00,,,0.49,Weather View 32 v70,2013-03-24 17:10:00,
2013-03-24 13:15:00,49.1,48.3,29.16,North,360,8.0,14.0,97,0.00,,,0.49,Weather View 32 v70,2013-03-24 17:15:00,
2013-03-24 13:20:00,49.0,48.2,29.16,North,360,5.0,14.0,97,0.00,,,0.49,Weather View 32 v70,2013-03-24 17:20:00,
2013-03-24 13:25:00,48.9,48.1,29.16,North,360,4.0,14.0,97,0.00,,,0.49,Weather View 32 v70,2013-03-24 17:25:00,
2013-03-24 13:30:00,49.1,48.3,29.15,NNE,22,6.0,14.0,97,0.00,,,0.49,Weather View 32 v70,2013-03-24 17:30:00,
2013-03-24 13:35:00,49.2,48.4,29.14,NNE,22,1.0,14.0,97,0.00,,,0.49,Weather View 32 v70,2013-03-24 17:35:00,
2013-03-24 13:40:00,49.3,48.5,29.14,NNE,22,6.0,14.0,97,0.00,,,0.49,Weather View 32 v70,2013-03-24 17:40:00,
2013-03-24 13:46:00,49.3,48.5,29.14,North,360,6.0,14.0,97,0.00,,,0.49,Weather View 32 v70,2013-03-24 17:46:00,
2013-03-24 13:51:00,49.3,48.5,29.14,North,360,4.0,14.0,97,0.00,,,0.49,Weather View 32 v70,2013-03-24 17:51:00,
2013-03-24 13:56:00,49.4,48.6,29.14,North,360,7.0,14.0,97,0.00,,,0.49,Weather View 32 v70,2013-03-24 17:56:00,
2013-03-24 14:01:00,49.2,48.4,29.14,NNW,337,4.0,14.0,97,0.00,,,0.49,Weather View 32 v70,2013-03-24 18:01:00,
2013-03-24 14:06:00,49.1,48.3,29.14,North,360,4.0,14.0,97,0.00,,,0.49,Weather View 32 v70,2013-03-24 18:06:00,
2013-03-24 14:11:00,49.1,48.3,29.14,NNW,337,3.0,14.0,97,0.00,,,0.49,Weather View 32 v70,2013-03-24 18:11:00,
2013-03-24 14:16:00,49.2,48.4,29.14,NNW,337,7.0,14.0,97,0.00,,,0.49,Weather View 32 v70,2013-03-24 18:16:00,
2013-03-24 14:21:00,48.9,48.1,29.14,NNW,337,7.0,14.0,97,0.00,,,0.49,Weather View 32 v70,2013-03-24 18:21:00,
2013-03-24 14:26:00,48.8,48.0,29.14,NNW,337,9.0,14.0,97,0.00,,,0.49,Weather View 32 v70,2013-03-24 18:26:00,
2013-03-24 14:31:00,48.4,47.6,29.14,NNW,337,6.0,14.0,97,0.00,,,0.49,Weather View 32 v70,2013-03-24 18:31:00,
2013-03-24 14:37:00,48.0,47.2,29.14,NNW,337,6.0,15.0,97,0.00,,,0.49,Weather View 32 v70,2013-03-24 18:37:00,
2013-03-24 14:42:00,48.1,47.3,29.14,NNW,337,6.0,15.0,97,0.00,,,0.49,Weather View 32 v70,2013-03-24 18:42:00,
2013-03-24 14:47:00,48.1,47.3,29.14,North,360,8.0,15.0,97,0.00,,,0.49,Weather View 32 v70,2013-03-24 18:47:00,
2013-03-24 14:52:00,47.9,47.1,29.14,North,360,7.0,15.0,97,0.00,,,0.49,Weather View 32 v70,2013-03-24 18:52:00,
2013-03-24 14:57:00,47.7,46.9,29.14,NNW,337,7.0,15.0,97,0.00,,,0.49,Weather View 32 v70,2013-03-24 18:57:00,
2013-03-24 15:02:00,47.6,46.8,29.15,NNW,337,9.0,15.0,97,0.00,,,0.49,Weather View 32 v70,2013-03-24 19:02:00,
2013-03-24 15:07:00,47.7,46.9,29.15,North,360,8.0,15.0,97,0.00,,,0.49,Weather View 32 v70,2013-03-24 19:07:00,
2013-03-24 15:12:00,47.9,47.1,29.14,NNE,22,1.0,15.0,97,0.00,,,0.49,Weather View 32 v70,2013-03-24 19:12:00,
2013-03-24 15:17:00,47.9,47.1,29.14,NNW,337,7.0,15.0,97,0.00,,,0.49,Weather View 32 v70,2013-03-24 19:17:00,
2013-03-24 15:22:00,47.8,47.0,29.13,North,360,6.0,15.0,97,0.00,,,0.49,Weather View 32 v70,2013-03-24 19:22:00,
2013-03-24 15:27:00,47.6,46.8,29.13,NNW,337,5.0,15.0,97,0.00,,,0.49,Weather View 32 v70,2013-03-24 19:27:00,
2013-03-24 15:32:00,47.4,46.6,29.13,North,360,8.0,15.0,97,0.00,,,0.49,Weather View 32 v70,2013-03-24 19:32:00,
2013-03-24 15:38:00,47.4,46.6,29.13,North,360,10.0,15.0,97,-0.03,,,0.49,Weather View 32 v70,2013-03-24 19:38:00,
2013-03-24 15:43:00,47.4,46.6,29.13,NNW,337,6.0,15.0,97,0.00,,,0.49,Weather View 32 v70,2013-03-24 19:43:00,
2013-03-24 15:48:00,47.6,46.8,29.13,North,360,6.0,15.0,97,0.00,,,0.49,Weather View 32 v70,2013-03-24 19:48:00,
2013-03-24 15:53:00,47.7,46.9,29.12,North,360,9.0,15.0,97,0.00,,,0.49,Weather View 32 v70,2013-03-24 19:53:00,
2013-03-24 15:58:00,47.4,46.6,29.12,NNW,337,7.0,15.0,97,0.00,,,0.49,Weather View 32 v70,2013-03-24 19:58:00,
2013-03-24 16:03:00,47.3,46.5,29.12,North,360,8.0,15.0,97,0.00,,,0.49,Weather View 32 v70,2013-03-24 20:03:00,
2013-03-24 16:08:00,46.9,46.1,29.12,North,360,6.0,15.0,97,0.00,,,0.49,Weather View 32 v70,2013-03-24 20:08:00,
2013-03-24 16:13:00,46.9,46.1,29.12,NW,315,7.0,15.0,97,0.00,,,0.49,Weather View 32 v70,2013-03-24 20:13:00,
2013-03-24 16:18:00,46.9,46.1,29.13,North,360,9.0,15.0,97,0.00,,,0.49,Weather View 32 v70,2013-03-24 20:18:00,
2013-03-24 16:23:00,47.0,46.2,29.13,NNW,337,7.0,15.0,97,0.00,,,0.49,Weather View 32 v70,2013-03-24 20:23:00,
2013-03-24 16:28:00,47.1,46.3,29.13,NNE,22,6.0,15.0,97,0.00,,,0.49,Weather View 32 v70,2013-03-24 20:28:00,
2013-03-24 16:33:00,46.9,46.1,29.13,North,360,7.0,14.0,97,0.00,,,0.49,Weather View 32 v70,2013-03-24 20:33:00,
2013-03-24 16:38:00,46.7,45.9,29.14,NNW,337,10.0,14.0,97,0.00,,,0.49,Weather View 32 v70,2013-03-24 20:38:00,
2013-03-24 16:43:00,46.6,45.8,29.14,North,360,4.0,14.0,97,0.00,,,0.49,Weather View 32 v70,2013-03-24 20:43:00,
2013-03-24 16:48:00,46.5,45.7,29.14,North,360,6.0,14.0,97,0.00,,,0.49,Weather View 32 v70,2013-03-24 20:48:00,
2013-03-24 16:53:00,46.4,45.6,29.14,NW,315,6.0,14.0,97,0.00,,,0.49,Weather View 32 v70,2013-03-24 20:53:00,
2013-03-24 16:58:00,46.3,45.5,29.15,NNW,337,4.0,14.0,97,0.00,,,0.49,Weather View 32 v70,2013-03-24 20:58:00,
2013-03-24 17:03:00,46.2,45.4,29.15,NNW,337,2.0,14.0,97,0.00,,,0.49,Weather View 32 v70,2013-03-24 21:03:00,
2013-03-24 17:08:00,46.3,45.5,29.16,NNW,337,7.0,12.0,97,0.00,,,0.49,Weather View 32 v70,2013-03-24 21:08:00,
2013-03-24 17:13:00,46.2,45.4,29.16,NNW,337,6.0,11.0,97,0.00,,,0.49,Weather View 32 v70,2013-03-24 21:13:00,
2013-03-24 17:18:00,46.3,45.5,29.17,NNW,337,2.0,11.0,97,0.00,,,0.49,Weather View 32 v70,2013-03-24 21:18:00,
2013-03-24 17:23:00,46.3,45.5,29.16,NNW,337,4.0,11.0,97,0.00,,,0.49,Weather View 32 v70,2013-03-24 21:23:00,
2013-03-24 17:28:00,46.5,45.7,29.16,NNW,337,2.0,11.0,97,0.00,,,0.49,Weather View 32 v70,2013-03-24 21:28:00,
2013-03-24 17:33:00,46.3,45.5,29.16,NW,315,6.0,11.0,97,0.00,,,0.49,Weather View 32 v70,2013-03-24 21:33:00,
2013-03-24 17:38:00,46.2,45.4,29.16,NNW,337,6.0,11.0,97,0.00,,,0.49,Weather View 32 v70,2013-03-24 21:38:00,
2013-03-24 17:43:00,45.9,45.1,29.16,NW,315,4.0,11.0,97,0.00,,,0.49,Weather View 32 v70,2013-03-24 21:43:00,
2013-03-24 17:48:00,45.9,45.1,29.17,NNW,337,4.0,11.0,97,0.00,,,0.49,Weather View 32 v70,2013-03-24 21:48:00,
2013-03-24 17:53:00,45.9,45.1,29.17,NNW,337,6.0,11.0,97,0.00,,,0.49,Weather View 32 v70,2013-03-24 21:53:00,
2013-03-24 17:58:00,45.8,45.0,29.17,NNW,337,3.0,11.0,97,0.00,,,0.49,Weather View 32 v70,2013-03-24 21:58:00,
2013-03-24 18:03:00,45.7,44.9,29.17,NW,315,4.0,11.0,97,0.00,,,0.49,Weather View 32 v70,2013-03-24 22:03:00,
2013-03-24 18:08:00,45.8,45.0,29.17,NNW,337,7.0,11.0,97,0.00,,,0.49,Weather View 32 v70,2013-03-24 22:08:00,
2013-03-24 18:13:00,45.7,44.9,29.17,NW,315,5.0,11.0,97,0.00,,,0.49,Weather View 32 v70,2013-03-24 22:13:00,
2013-03-24 18:18:00,45.7,44.9,29.17,NNW,337,5.0,11.0,97,0.00,,,0.49,Weather View 32 v70,2013-03-24 22:18:00,
2013-03-24 18:23:00,45.6,44.8,29.17,North,360,2.0,11.0,97,0.00,,,0.49,Weather View 32 v70,2013-03-24 22:23:00,
2013-03-24 18:28:00,45.6,44.8,29.17,NNW,337,6.0,11.0,97,0.00,,,0.49,Weather View 32 v70,2013-03-24 22:28:00,
2013-03-24 18:33:00,45.6,44.8,29.17,North,360,4.0,11.0,97,0.00,,,0.49,Weather View 32 v70,2013-03-24 22:33:00,
2013-03-24 18:38:00,45.5,44.7,29.17,NNW,337,4.0,11.0,97,0.00,,,0.49,Weather View 32 v70,2013-03-24 22:38:00,
2013-03-24 18:43:00,45.3,44.5,29.17,NNW,337,5.0,11.0,97,0.00,,,0.49,Weather View 32 v70,2013-03-24 22:43:00,
2013-03-24 18:48:00,45.3,44.5,29.18,NNE,22,2.0,11.0,97,0.00,,,0.49,Weather View 32 v70,2013-03-24 22:48:00,
2013-03-24 18:53:00,45.3,44.5,29.17,North,360,3.0,11.0,97,0.00,,,0.49,Weather View 32 v70,2013-03-24 22:53:00,
2013-03-24 18:58:00,45.4,44.6,29.17,NNW,337,2.0,9.0,97,0.00,,,0.49,Weather View 32 v70,2013-03-24 22:58:00,
2013-03-24 19:04:00,45.3,44.5,29.18,NNW,337,4.0,9.0,97,0.00,,,0.49,Weather View 32 v70,2013-03-24 23:04:00,
2013-03-24 19:09:00,45.2,44.4,29.18,NW,315,4.0,9.0,97,0.00,,,0.49,Weather View 32 v70,2013-03-24 23:09:00,
2013-03-24 19:14:00,45.2,44.4,29.18,NNW,337,4.0,9.0,97,0.00,,,0.49,Weather View 32 v70,2013-03-24 23:14:00,
2013-03-24 19:19:00,45.2,44.4,29.18,North,360,3.0,9.0,97,0.00,,,0.49,Weather View 32 v70,2013-03-24 23:19:00,
2013-03-24 19:24:00,45.2,44.4,29.18,North,360,2.0,9.0,97,0.00,,,0.49,Weather View 32 v70,2013-03-24 23:24:00,
2013-03-24 19:29:00,45.1,44.3,29.19,NNW,337,3.0,9.0,97,0.00,,,0.49,Weather View 32 v70,2013-03-24 23:29:00,
2013-03-24 19:34:00,45.1,44.3,29.19,NW,315,2.0,9.0,97,0.00,,,0.49,Weather View 32 v70,2013-03-24 23:34:00,
2013-03-24 19:39:00,45.0,44.2,29.20,NNW,337,2.0,9.0,97,0.00,,,0.49,Weather View 32 v70,2013-03-24 23:39:00,
2013-03-24 19:44:00,45.0,44.2,29.20,NNW,337,2.0,7.0,97,0.00,,,0.49,Weather View 32 v70,2013-03-24 23:44:00,
2013-03-24 19:49:00,44.9,43.8,29.20,NNW,337,2.0,7.0,96,0.00,,,0.49,Weather View 32 v70,2013-03-24 23:49:00,
2013-03-24 19:54:00,44.9,43.8,29.20,NNW,337,4.0,6.0,96,0.00,,,0.49,Weather View 32 v70,2013-03-24 23:54:00,
2013-03-24 19:59:00,44.9,43.8,29.20,NW,315,2.0,6.0,96,0.00,,,0.49,Weather View 32 v70,2013-03-24 23:59:00,
2013-03-24 20:04:00,44.9,43.8,29.20,NNW,337,2.0,6.0,96,0.00,,,0.49,Weather View 32 v70,2013-03-25 00:04:00,
2013-03-24 20:09:00,44.8,43.7,29.20,NNW,337,1.0,6.0,96,0.00,,,0.49,Weather View 32 v70,2013-03-25 00:09:00,
2013-03-24 20:14:00,44.8,43.7,29.20,NW,315,2.0,6.0,96,0.00,,,0.49,Weather View 32 v70,2013-03-25 00:14:00,
2013-03-24 20:19:00,44.9,43.8,29.21,NW,315,2.0,6.0,96,0.00,,,0.49,Weather View 32 v70,2013-03-25 00:19:00,
2013-03-24 20:24:00,44.8,43.7,29.21,WNW,292,2.0,6.0,96,0.00,,,0.49,Weather View 32 v70,2013-03-25 00:24:00,
2013-03-24 20:29:00,44.8,43.7,29.22,WNW,292,2.0,6.0,96,0.00,,,0.49,Weather View 32 v70,2013-03-25 00:29:00,
2013-03-24 20:34:00,44.8,43.7,29.22,WNW,292,2.0,6.0,96,0.00,,,0.49,Weather View 32 v70,2013-03-25 00:34:00,
2013-03-24 20:39:00,44.8,43.7,29.22,WNW,292,2.0,6.0,96,0.00,,,0.49,Weather View 32 v70,2013-03-25 00:39:00,
2013-03-24 20:44:00,44.8,43.7,29.22,WNW,292,2.0,6.0,96,0.00,,,0.49,Weather View 32 v70,2013-03-25 00:44:00,
2013-03-24 20:49:00,44.8,43.7,29.22,WNW,292,2.0,6.0,96,0.00,,,0.49,Weather View 32 v70,2013-03-25 00:49:00,
2013-03-24 20:54:00,44.8,43.7,29.22,WNW,292,2.0,6.0,96,0.00,,,0.49,Weather View 32 v70,2013-03-25 00:54:00,
2013-03-24 20:59:00,44.7,43.6,29.21,WNW,292,0.0,6.0,96,0.00,,,0.49,Weather View 32 v70,2013-03-25 00:59:00,
2013-03-24 21:04:00,44.8,43.7,29.20,WNW,292,0.0,6.0,96,0.00,,,0.49,Weather View 32 v70,2013-03-25 01:04:00,
2013-03-24 21:09:00,44.8,43.7,29.20,WNW,292,0.0,6.0,96,0.00,,,0.49,Weather View 32 v70,2013-03-25 01:09:00,
2013-03-24 21:14:00,44.7,43.6,29.21,WNW,292,0.0,6.0,96,0.00,,,0.49,Weather View 32 v70,2013-03-25 01:14:00,
2013-03-24 21:19:00,44.7,43.6,29.21,NW,315,0.0,6.0,96,0.00,,,0.49,Weather View 32 v70,2013-03-25 01:19:00,
2013-03-24 21:24:00,44.7,43.6,29.21,NNE,22,2.0,6.0,96,0.00,,,0.49,Weather View 32 v70,2013-03-25 01:24:00,
2013-03-24 21:29:00,44.7,43.6,29.21,ENE,67,2.0,6.0,96,0.00,,,0.49,Weather View 32 v70,2013-03-25 01:29:00,
2013-03-24 21:34:00,44.7,43.6,29.20,East,90,1.0,6.0,96,0.00,,,0.49,Weather View 32 v70,2013-03-25 01:34:00,
2013-03-24 21:39:00,44.7,43.6,29.20,ENE,67,1.0,5.0,96,0.00,,,0.49,Weather View 32 v70,2013-03-25 01:39:00,
2013-03-24 21:44:00,44.7,43.6,29.20,ENE,67,2.0,5.0,96,0.00,,,0.49,Weather View 32 v70,2013-03-25 01:44:00,
2013-03-24 21:49:00,44.7,43.6,29.19,ENE,67,3.0,5.0,96,0.00,,,0.49,Weather View 32 v70,2013-03-25 01:49:00,
2013-03-24 21:54:00,44.6,43.5,29.19,NE,45,1.0,5.0,96,0.00,,,0.49,Weather View 32 v70,2013-03-25 01:54:00,
2013-03-24 21:59:00,44.5,43.4,29.19,NE,45,5.0,5.0,96,0.00,,,0.49,Weather View 32 v70,2013-03-25 01:59:00,
2013-03-24 22:04:00,44.3,43.2,29.18,ENE,67,4.0,6.0,96,0.00,,,0.49,Weather View 32 v70,2013-03-25 02:04:00,
2013-03-24 22:09:00,44.2,43.1,29.18,East,90,2.0,6.0,96,0.00,,,0.49,Weather View 32 v70,2013-03-25 02:09:00,
2013-03-24 22:14:00,44.0,42.9,29.18,ENE,67,3.0,6.0,96,0.00,,,0.49,Weather View 32 v70,2013-03-25 02:14:00,
2013-03-24 22:19:00,43.9,42.8,29.17,ENE,67,4.0,7.0,96,0.00,,,0.49,Weather View 32 v70,2013-03-25 02:19:00,
2013-03-24 22:25:00,43.8,42.7,29.17,ENE,67,3.0,7.0,96,-0.02,,,0.49,Weather View 32 v70,2013-03-25 02:25:00,
2013-03-24 22:30:00,43.8,42.7,29.17,NE,45,4.0,7.0,96,0.00,,,0.49,Weather View 32 v70,2013-03-25 02:30:00,
2013-03-24 22:35:00,43.7,42.6,29.17,ENE,67,2.0,7.0,96,0.00,,,0.49,Weather View 32 v70,2013-03-25 02:35:00,
2013-03-24 22:40:00,43.8,42.7,29.16,ENE,67,4.0,8.0,96,-0.02,,,0.49,Weather View 32 v70,2013-03-25 02:40:00,
2013-03-24 22:45:00,43.8,42.7,29.16,ENE,67,5.0,8.0,96,0.00,,,0.49,Weather View 32 v70,2013-03-25 02:45:00,
2013-03-24 22:50:00,43.8,42.7,29.16,East,90,4.0,9.0,96,0.00,,,0.49,Weather View 32 v70,2013-03-25 02:50:00,
2013-03-24 22:55:00,43.8,42.7,29.16,ENE,67,4.0,9.0,96,0.00,,,0.49,Weather View 32 v70,2013-03-25 02:55:00,
2013-03-24 23:00:00,43.8,42.7,29.16,East,90,4.0,9.0,96,0.00,,,0.49,Weather View 32 v70,2013-03-25 03:00:00,
2013-03-24 23:05:00,43.9,42.8,29.16,East,90,2.0,9.0,96,0.00,,,0.49,Weather View 32 v70,2013-03-25 03:05:00,
2013-03-24 23:10:00,43.9,42.8,29.16,East,90,2.0,9.0,96,0.00,,,0.49,Weather View 32 v70,2013-03-25 03:10:00,
2013-03-24 23:15:00,43.9,42.8,29.16,East,90,3.0,9.0,96,0.00,,,0.49,Weather View 32 v70,2013-03-25 03:15:00,
2013-03-24 23:20:00,43.8,42.7,29.16,ENE,67,4.0,9.0,96,0.00,,,0.49,Weather View 32 v70,2013-03-25 03:20:00,
2013-03-24 23:25:00,43.8,42.7,29.16,East,90,4.0,9.0,96,0.00,,,0.49,Weather View 32 v70,2013-03-25 03:25:00,
2013-03-24 23:30:00,43.8,42.7,29.16,ENE,67,6.0,9.0,96,0.00,,,0.49,Weather View 32 v70,2013-03-25 03:30:00,
2013-03-24 23:35:00,43.8,42.7,29.17,NNE,22,2.0,9.0,96,0.00,,,0.49,Weather View 32 v70,2013-03-25 03:35:00,
2013-03-24 23:40:00,43.8,42.7,29.17,North,360,2.0,9.0,96,0.00,,,0.49,Weather View 32 v70,2013-03-25 03:40:00,
2013-03-24 23:45:00,43.9,42.8,29.18,NE,45,2.0,9.0,96,0.00,,,0.49,Weather View 32 v70,2013-03-25 03:45:00,
2013-03-24 23:50:00,43.9,42.8,29.18,NNW,337,2.0,9.0,96,0.00,,,0.49,Weather View 32 v70,2013-03-25 03:50:00,
2013-03-24 23:55:00,43.9,42.8,29.18,NW,315,2.0,9.0,96,0.00,,,0.49,Weather View 32 v70,2013-03-25 03:55:00,